Roba, Alabama
Current Conditions -  °F | °C
As of 9:55 PM on Saturday 24 Jan 2015 (Local Time) from KAUO Reporting Station
Clear Clear  
Wind Chill: 34°   Ceiling: Unl
Heat Index: 39°   Visibility: 10mi
Dew Point: 27°   Wind: 7mph
Humidity: 61%   Direction: 280°W
Pressure: 30.03"   Gusts: NA
Location:  32.2227°N, 85.6394°W
Report Text: KAUO 250355Z AUTO 28006KT 10SM CLR 04/M03 A3003 RMK AO1
Loading
Personal Weather Stations






























Interactive Weather Map New forecast layout! Learn more

10-Day Weather Forecast

Advertisements
Track Severe Weather on mobile